Divide, Arkansas
Current Conditions -  °F | °C
As of 1:53 PM on Monday 24 Nov 2014 (Local Time) from KRUE Reporting Station
Clear Clear  
Wind Chill: 59°   Ceiling: Unl
Heat Index: 59°   Visibility: 10mi
Dew Point: 24°   Wind: 17mph
Humidity: 26%   Direction: 280°W
Pressure: 29.89"   Gusts: 29mph
Location:  35.031°N, 93.0373°W
Report Text: KRUE 241953Z AUTO 28015G25KT 10SM CLR 15/M04 A2989 RMK AO2 SLP117 T01501044
Loading
Personal Weather Stations






























Interactive Weather Map New forecast layout! Learn more

10-Day Weather Forecast

Advertisements
Track Severe Weather on mobile